TAF Text Data
IDs:
Format:
Raw Decoded Include METAR

Data at: 1121 UTC 07 Dec 2022

KECP 071120Z 0712/0812 00000KT 1/4SM FG BKN004 OVC040
  FM071300 VRB03KT 2SM BR OVC002
  FM071600 VRB03KT 6SM BR BKN020
  FM071900 19004KT P6SM SCT035
  FM080600 00000KT 5SM BR BKN008
  FM080900 00000KT 1/2SM FG BKN002